Latest Weather Observations for Kingfish B

IDV60801

Issued at 8:02 am EST Saturday 24 August 2019 (issued every 10 minutes, with the page automatically refreshed every 10 minutes)

About weather observations | Map of weather stations | Latest weather observations for VIC | Other Formats
Station Details ID: 400139 Name: KINGFISH B (PLATFORM) Lat: -38.60 Lon: 148.19 Height: 31.4 m
Data from the previous 72 hours. | See also: Recent months for locations in Victoria
Date/Time
EST
Temp
°C
App
Temp
°C
Dew
Point
°C
Rel
Hum
%
Delta-T
°C
Wind Press
QNH
hPa
Press
MSL
hPa
Rain since
9am
mm
Dir  Spd
km/h
Gust
km/h
Spd
kts
Gust
kts
24/06:50am 12.5 7.6 7.1 69 2.6 NW 22 26 12 14 1015.8 - -
24/06:40am 12.3 7.8 6.8 69 2.6 NW 20 22 11 12 1015.9 - -
24/06:30am 12.0 7.0 6.5 69 2.6 NW 22 24 12 13 1015.8 - -
24/06:20am 11.8 7.2 6.4 69 2.6 NW 20 22 11 12 1015.8 - -
24/06:10am 11.6 7.0 6.3 70 2.5 NW 20 22 11 12 1015.8 - -
24/06:00am 11.4 6.9 6.2 70 2.4 NW 19 20 10 11 1015.9 - -
24/05:50am 11.3 6.8 6.3 71 2.3 NW 19 20 10 11 1015.9 - -
24/05:40am 11.2 6.7 6.2 71 2.3 NW 19 20 10 11 1015.9 - -
24/05:30am 11.2 7.1 6.3 72 2.3 NW 17 19 9 10 1015.8 - -
24/05:20am 11.2 7.1 6.4 72 2.3 NW 17 19 9 10 1015.8 - -
24/05:10am 11.2 7.2 6.5 73 2.2 NW 17 20 9 11 1015.8 - -
24/05:00am 11.1 7.0 6.4 73 2.2 NW 17 20 9 11 1015.7 - -
24/04:50am 11.1 6.7 6.4 73 2.2 NW 19 20 10 11 1015.8 - -
24/04:40am 11.1 7.0 6.4 73 2.2 NW 17 19 9 10 1015.8 - -
24/04:30am 11.0 7.0 6.5 74 2.1 NW 17 19 9 10 1015.8 - -
24/04:20am 10.9 7.2 6.5 74 2.1 NW 15 19 8 10 1015.8 - -
24/04:10am 10.9 7.3 6.7 75 2.0 NW 15 19 8 10 1015.7 - -
24/04:00am 10.7 7.1 6.7 76 1.9 NW 15 17 8 9 1015.7 - -
24/03:50am 10.6 7.0 6.7 77 1.8 NW 15 17 8 9 1015.7 - -
24/03:40am 10.7 7.9 6.9 77 1.8 NW 11 15 6 8 1015.8 - -
24/03:30am 10.8 8.0 7.0 77 1.8 NW 11 13 6 7 1015.8 - -
24/03:20am 10.9 8.5 7.0 77 1.9 NW 9 13 5 7 1015.9 - -
24/03:10am 10.9 8.1 6.9 76 1.9 NW 11 13 6 7 1015.9 - -
24/03:00am 10.8 8.0 6.8 76 1.9 NW 11 17 6 9 1015.9 - -
24/02:50am 10.9 8.5 6.8 76 1.9 NW 9 11 5 6 1015.9 - -
24/02:40am 10.9 8.5 6.8 76 1.9 NW 9 11 5 6 1015.9 - -
24/02:30am 11.0 7.8 6.8 75 2.0 NW 13 15 7 8 1015.9 - -
24/02:20am 10.9 7.7 6.7 75 2.0 NW 13 13 7 7 1016.0 - -
24/02:10am 10.8 7.9 6.5 75 2.0 NW 11 15 6 8 1016.1 - -
24/02:00am 10.9 8.0 6.5 74 2.1 NW 11 13 6 7 1016.2 - -
24/01:50am 10.9 8.0 6.5 74 2.1 NW 11 13 6 7 1016.3 - -
24/01:40am 10.9 8.0 6.5 74 2.1 NW 11 13 6 7 1016.3 - -
24/01:30am 10.9 8.0 6.4 74 2.1 NW 11 13 6 7 1016.4 - -
24/01:20am 10.8 7.5 6.4 74 2.1 NNW 13 15 7 8 1016.5 - -
24/01:10am 10.8 7.5 6.3 74 2.1 NNW 13 15 7 8 1016.6 - -
24/01:00am 10.8 7.5 6.3 74 2.1 NW 13 15 7 8 1016.6 - -
24/12:50am 10.8 7.5 6.3 74 2.1 NW 13 15 7 8 1016.7 - -
24/12:40am 10.8 7.5 6.3 74 2.1 NW 13 15 7 8 1016.7 - -
24/12:30am 10.8 7.1 6.4 74 2.1 NW 15 17 8 9 1016.8 - -
24/12:20am 10.8 7.1 6.4 74 2.1 NW 15 17 8 9 1016.9 - -
24/12:10am 10.8 7.1 6.3 74 2.1 NW 15 17 8 9 1017.1 - -
24/12:00am 10.8 7.1 6.3 74 2.1 NW 15 17 8 9 1017.2 - -
 
Date/Time
EST
Temp
°C
App
Temp
°C
Dew
Point
°C
Rel
Hum
%
Delta-T
°C
Wind Press
QNH
hPa
Press
MSL
hPa
Rain since
9am
mm
Dir  Spd
km/h
Gust
km/h
Spd
kts
Gust
kts
23/11:50pm 10.8 6.7 6.3 74 2.1 NW 17 19 9 10 1017.4 - -
23/11:40pm 10.8 7.1 6.3 74 2.1 NW 15 19 8 10 1017.4 - -
23/11:30pm 10.8 6.7 6.4 74 2.1 NW 17 19 9 10 1017.5 - -
23/11:20pm 10.8 6.7 6.3 74 2.1 NNW 17 20 9 11 1017.5 - -
23/11:10pm 10.9 6.8 6.4 74 2.1 NNW 17 19 9 10 1017.6 - -
23/11:00pm 11.0 7.3 6.5 74 2.1 NNW 15 19 8 10 1017.7 - -
23/10:50pm 10.9 7.2 6.5 74 2.1 NNW 15 17 8 9 1017.9 - -
23/10:40pm 11.0 7.3 6.5 74 2.1 NNW 15 17 8 9 1018.0 - -
23/10:30pm 11.1 7.4 6.5 73 2.2 NNW 15 19 8 10 1018.1 - -
23/10:20pm 11.0 7.3 6.5 74 2.1 NNW 15 17 8 9 1018.2 - -
23/10:10pm 10.7 7.4 6.2 74 2.1 NNW 13 17 7 9 1018.2 - -
23/09:50pm 10.7 7.0 6.2 74 2.1 NNW 15 17 8 9 1018.3 - -
23/09:40pm 10.8 7.1 6.2 73 2.1 NNW 15 17 8 9 1018.5 - -
23/09:20pm 10.8 7.4 6.1 73 2.2 NNW 13 15 7 8 1018.8 - -
23/09:00pm 10.7 7.7 6.0 73 2.2 NNW 11 13 6 7 1019.0 - -
23/08:40pm 10.7 8.5 6.0 73 2.2 NNW 7 11 4 6 1019.2 - -
23/08:30pm 10.7 8.5 6.0 73 2.2 NNW 7 9 4 5 1019.3 - -
23/08:20pm 10.7 8.5 6.0 73 2.2 NNW 7 11 4 6 1019.4 - -
23/08:00pm 10.8 8.2 6.0 72 2.2 NNW 9 11 5 6 1019.5 - -
23/07:40pm 10.8 8.6 6.0 72 2.2 NNW 7 9 4 5 1019.8 - -
23/07:20pm 10.6 8.9 5.8 72 2.2 NW 4 6 2 3 1020.0 - -
23/06:30pm 10.9 8.8 5.8 71 2.4 SW 6 7 3 4 1020.0 - -
23/06:20pm 10.8 8.5 5.7 71 2.4 SW 7 9 4 5 1019.9 - -
23/05:30pm 10.9 8.6 5.7 70 2.4 SW 7 9 4 5 1019.7 - -
23/05:10pm 10.9 8.6 5.7 70 2.4 SW 7 9 4 5 1019.6 - -
23/05:00pm 10.9 8.6 5.7 70 2.4 SSW 7 9 4 5 1019.6 - -
23/04:50pm 10.9 8.8 5.6 70 2.4 SSW 6 9 3 5 1019.6 - -
23/04:40pm 10.9 8.6 5.5 69 2.5 SSW 7 11 4 6 1019.6 - -
23/04:30pm 11.2 9.1 5.6 68 2.6 SSW 6 9 3 5 1019.6 - -
23/04:00pm 11.5 9.2 5.7 67 2.7 SW 7 11 4 6 1019.7 - -
23/03:40pm 11.5 8.8 5.7 67 2.7 SW 9 11 5 6 1019.7 - -
23/03:30pm 11.5 8.8 5.6 67 2.7 SW 9 11 5 6 1019.7 - -
23/03:20pm 11.5 9.2 5.6 67 2.7 SW 7 9 4 5 1019.8 - -
23/03:10pm 11.5 9.2 5.5 66 2.8 SW 7 9 4 5 1019.7 - -
23/03:00pm 11.5 8.8 5.5 66 2.8 SW 9 13 5 7 1019.8 - -
23/02:50pm 11.5 8.4 5.5 66 2.8 SW 11 15 6 8 1019.9 - -
23/02:40pm 11.4 8.3 5.4 66 2.8 WSW 11 15 6 8 1020.0 - -
23/02:20pm 11.2 8.4 5.2 66 2.7 WSW 9 13 5 7 1020.1 - -
23/01:30pm 11.1 7.5 4.9 65 2.8 WSW 13 17 7 9 1020.4 - -
23/01:00pm 11.0 6.6 4.8 65 2.8 WSW 17 20 9 11 1020.7 - -
23/12:20pm 11.1 6.3 4.6 64 2.9 WSW 19 22 10 12 1021.0 - -
23/12:10pm 11.1 6.3 4.4 63 3.0 WSW 19 22 10 12 1021.2 - -
23/12:00pm 11.2 6.4 4.4 63 3.1 WSW 19 24 10 13 1021.3 - -
23/11:50am 11.3 6.5 4.4 62 3.1 W 19 22 10 12 1021.4 - -
23/11:00am 11.4 6.4 4.5 62 3.1 W 20 26 11 14 1022.2 - -
23/10:40am 11.4 6.0 4.6 63 3.1 W 22 28 12 15 1022.7 - -
23/10:30am 11.5 6.1 4.3 61 3.2 W 22 28 12 15 1022.9 - -
23/10:10am 11.6 6.4 3.8 59 3.5 W 20 28 11 15 1023.1 - -
23/10:00am 11.7 6.5 3.8 58 3.5 W 20 24 11 13 1023.3 - -
23/09:50am 11.8 6.7 3.9 58 3.5 W 20 26 11 14 1023.4 - -
23/09:30am 12.0 7.0 3.8 57 3.7 W 19 24 10 13 1023.5 - -
23/09:00am 12.0 6.5 4.2 59 3.5 W 22 28 12 15 1023.9 - -
23/08:40am 12.0 6.9 3.9 57 3.6 W 20 28 11 15 1024.0 - -
23/08:30am 12.1 7.0 4.1 58 3.6 W 20 24 11 13 1024.1 - -
23/08:20am 11.9 6.9 3.7 57 3.7 W 19 24 10 13 1024.2 - -
23/07:50am 11.6 6.6 3.8 59 3.5 W 19 28 10 15 1024.4 - -
23/07:00am 10.8 5.6 3.5 60 3.2 WSW 20 28 11 15 1024.3 - -
23/06:50am 10.8 5.2 3.5 60 3.2 WSW 22 30 12 16 1024.3 - -
23/06:40am 10.6 5.4 3.5 61 3.1 W 20 26 11 14 1024.4 - -
23/05:30am 10.6 5.3 3.2 60 3.2 W 20 26 11 14 1024.0 - -
23/04:30am 11.0 4.7 3.9 61 3.2 W 26 37 14 20 1023.5 - -
23/04:10am 11.2 5.0 4.1 61 3.2 WSW 26 35 14 19 1023.5 - -
23/04:00am 11.2 5.3 3.8 60 3.3 WSW 24 30 13 16 1023.5 - -
23/03:50am 11.2 5.2 3.4 58 3.4 SW 24 32 13 17 1023.6 - -
23/03:30am 11.2 4.4 3.3 58 3.5 WSW 28 33 15 18 1023.4 - -
23/03:20am 11.0 4.9 2.9 57 3.5 WSW 24 33 13 18 1023.4 - -
23/02:50am 11.5 4.4 3.3 57 3.6 WSW 30 35 16 19 1023.4 - -
23/02:40am 11.6 4.9 3.4 57 3.6 WSW 28 33 15 18 1023.5 - -
23/02:10am 11.4 5.0 3.1 56 3.6 SW 26 35 14 19 1023.7 - -
23/02:00am 11.5 4.4 3.8 59 3.4 WSW 30 37 16 20 1023.6 - -
23/01:40am 11.6 5.3 3.5 57 3.6 WSW 26 32 14 17 1023.8 - -
23/01:30am 11.7 5.4 3.5 57 3.6 WSW 26 33 14 18 1023.8 - -
23/01:20am 11.8 5.1 3.8 58 3.6 WSW 28 35 15 19 1023.8 - -
23/01:00am 11.7 5.7 3.3 56 3.7 WSW 24 33 13 18 1024.0 - -
23/12:50am 11.7 5.3 3.3 56 3.7 WSW 26 32 14 17 1024.0 - -
23/12:40am 11.7 5.0 3.4 56 3.7 WSW 28 37 15 20 1024.1 - -
23/12:30am 11.6 5.2 3.0 55 3.8 WSW 26 39 14 21 1024.1 - -
23/12:10am 11.8 4.4 3.8 58 3.6 WSW 32 39 17 21 1024.0 - -
 
Date/Time
EST
Temp
°C
App
Temp
°C
Dew
Point
°C
Rel
Hum
%
Delta-T
°C
Wind Press
QNH
hPa
Press
MSL
hPa
Rain since
9am
mm
Dir  Spd
km/h
Gust
km/h
Spd
kts
Gust
kts
22/08:00pm 11.9 3.2 2.3 52 4.1 SW 37 44 20 24 1024.0 - -
22/07:40pm 11.9 3.3 2.7 53 4.0 SW 37 46 20 25 1023.8 - -
22/07:00pm 11.9 2.8 2.0 50 4.2 SW 39 46 21 25 1023.6 - -
22/03:40pm 11.8 1.9 2.7 53 4.0 SW 44 54 24 29 1021.6 - -
22/03:30pm 11.8 1.6 3.0 55 3.9 SW 46 52 25 28 1021.4 - -
22/03:20pm 11.8 1.5 2.9 54 3.9 SW 46 52 25 28 1021.2 - -
22/03:10pm 11.7 1.5 3.0 55 3.8 SW 46 54 25 29 1021.1 - -
22/03:00pm 11.6 1.0 3.1 56 3.7 SW 48 56 26 30 1021.1 - -
22/02:20pm 11.6 1.0 3.3 56 3.7 SW 48 57 26 31 1020.8 - -
22/02:00pm 11.8 0.4 2.8 54 3.9 SW 52 57 28 31 1020.3 - -
22/01:50pm 11.8 0.5 3.2 55 3.8 SW 52 59 28 32 1020.0 - -
22/01:40pm 11.8 0.5 3.4 56 3.7 SW 52 61 28 33 1020.0 - -
22/01:30pm 11.7 0.7 2.8 54 3.9 SW 50 59 27 32 1020.0 - -
22/01:20pm 11.8 0.0 2.9 54 3.9 SW 54 63 29 34 1019.7 - -
22/01:10pm 11.6 -0.2 2.7 54 3.9 SW 54 63 29 34 1020.1 - -
22/01:00pm 11.7 -0.5 2.8 54 3.9 SW 56 63 30 34 1019.8 - -
22/12:50pm 11.8 -0.4 2.9 54 3.9 SW 56 65 30 35 1019.9 - -
22/11:50am 11.9 -0.5 2.8 53 4.0 SW 57 65 31 35 1018.8 - -
22/11:40am 12.0 0.3 3.1 54 3.9 SW 54 61 29 33 1019.2 - -
22/11:10am 12.1 -0.3 2.7 52 4.1 SW 57 65 31 35 1018.8 - -
22/10:20am 12.7 -0.5 2.4 49 4.5 SW 61 69 33 37 1018.3 - -
22/10:10am 12.7 -0.9 2.3 49 4.5 SW 63 72 34 39 1018.0 - -
22/10:00am 12.7 -0.5 2.3 49 4.5 SW 61 74 33 40 1018.4 - -
22/09:50am 12.9 -0.2 2.8 50 4.5 SW 61 72 33 39 1018.3 - -
22/09:30am 12.6 -1.3 2.6 50 4.4 SW 65 76 35 41 1018.5 - -
22/09:20am 12.7 -0.5 2.3 49 4.5 SW 61 76 33 41 1018.2 - -
22/09:00am 12.6 -1.7 2.6 50 4.4 SW 67 76 36 41 1017.5 - -
22/08:50am 12.7 -1.6 2.7 50 4.4 SW 67 78 36 42 1017.1 - -
22/08:30am 12.5 -0.5 3.4 54 4.1 SW 61 70 33 38 1016.9 - -
22/07:00am 12.0 -1.4 3.4 55 3.8 SW 63 74 34 40 1015.7 - -
22/06:40am 11.6 -2.6 3.3 56 3.7 SW 67 76 36 41 1015.4 - -
22/05:10am 11.4 -4.9 2.9 56 3.7 SW 78 95 42 51 1013.3 - -
22/05:00am 11.3 -6.3 3.1 57 3.6 SW 85 96 46 52 1012.8 - -
22/04:50am 11.3 -5.7 3.3 58 3.5 SW 82 96 44 52 1012.4 - -
22/04:40am 11.3 -6.3 3.3 58 3.5 SW 85 102 46 55 1012.2 - -
22/04:30am 11.4 -5.8 3.6 58 3.5 SW 83 96 45 52 1011.8 - -
22/04:20am 11.5 -5.4 4.0 60 3.4 SW 82 96 44 52 1011.3 - -
22/04:00am 11.6 -5.8 4.5 61 3.2 SW 85 100 46 54 1010.5 - -
22/03:50am 11.5 -4.1 4.8 63 3.1 SW 76 95 41 51 1010.9 - -
22/03:40am 11.5 -5.3 4.5 62 3.2 SW 82 100 44 54 1009.9 - -
22/03:30am 11.9 -4.2 4.4 60 3.4 SW 78 100 42 54 1010.0 - -
22/03:20am 11.8 -5.7 3.8 58 3.6 SW 85 104 46 56 1010.4 - -
22/03:00am 12.0 -4.9 4.0 58 3.6 SW 82 102 44 55 1009.0 - -
22/02:50am 12.0 -5.1 4.1 58 3.6 SW 83 102 45 55 1010.0 - -
22/02:20am 11.9 -6.4 5.7 66 2.9 SW 91 109 49 59 1008.1 - -
22/01:40am 12.1 -6.3 6.7 69 2.6 SW 93 113 50 61 1006.4 - -
22/01:20am 11.9 -6.2 6.6 70 2.5 SW 91 109 49 59 1006.3 - -
22/01:10am 12.0 -6.5 6.6 69 2.6 SW 93 130 50 70 1006.6 - -
22/01:00am 12.6 -3.2 7.5 71 2.5 SW 80 106 43 57 1006.3 - -
22/12:40am 12.7 -5.2 7.5 70 2.5 SW 91 115 49 62 1006.5 - -
22/12:30am 13.0 -3.6 7.9 71 2.5 SW 85 104 46 56 1006.1 - -
22/12:20am 13.0 -4.7 8.0 71 2.5 SW 91 109 49 59 1005.5 - -
22/12:00am 13.1 -4.4 8.9 75 2.1 WSW 91 113 49 61 1004.5 - -
 
Date/Time
EST
Temp
°C
App
Temp
°C
Dew
Point
°C
Rel
Hum
%
Delta-T
°C
Wind Press
QNH
hPa
Press
MSL
hPa
Rain since
9am
mm
Dir  Spd
km/h
Gust
km/h
Spd
kts
Gust
kts
21/11:50pm 13.3 -2.0 9.3 77 2.0 WSW 80 100 43 54 1005.0 - -
21/11:40pm 13.4 -1.9 9.4 77 2.0 WSW 80 96 43 52 1004.6 - -
21/11:10pm 13.4 -1.9 9.5 77 2.0 WSW 80 96 43 52 1004.4 - -
21/11:00pm 13.4 -1.5 9.5 77 2.0 WSW 78 96 42 52 1004.6 - -
21/10:50pm 13.4 -1.9 9.4 77 2.0 WSW 80 95 43 51 1004.6 - -
21/10:30pm 13.3 -2.4 9.3 77 2.0 WSW 82 100 44 54 1004.3 - -
21/10:20pm 13.2 -2.5 9.2 77 2.0 WSW 82 100 44 54 1004.4 - -
21/10:00pm 13.4 -3.3 9.0 75 2.2 WSW 87 107 47 58 1004.1 - -
21/09:50pm 13.1 -3.7 8.8 75 2.2 W 87 109 47 59 1004.2 - -
21/03:00pm 13.4 -1.5 6.2 61 3.4 WSW 74 87 40 47 1009.1 - -
21/02:50pm 13.6 -1.4 6.1 60 3.6 WSW 74 93 40 50 1009.2 - -
21/02:00pm 13.6 -1.8 5.8 59 3.7 WSW 76 91 41 49 1009.3 - -
21/01:50pm 13.5 -2.2 6.3 61 3.4 WSW 78 95 42 51 1009.2 - -
21/12:20pm 13.8 -3.3 5.9 59 3.8 WSW 85 109 46 59 1008.6 - -
21/12:00pm 13.9 -2.1 6.7 62 3.5 WSW 80 98 43 53 1008.7 - -
21/11:50am 13.9 -2.6 6.7 62 3.5 WSW 83 102 45 55 1008.8 - -
21/09:40am 14.2 0.6 7.9 66 3.1 WSW 69 83 37 45 1010.4 - -
21/09:20am 14.3 0.4 7.2 62 3.5 WSW 70 82 38 44 1010.2 - -
21/09:10am 14.2 -0.5 7.2 63 3.4 WSW 74 87 40 47 1010.0 - -
21/08:30am 14.0 -0.9 8.2 68 2.9 WSW 76 91 41 49 1009.9 - -
21/08:20am 14.0 -0.4 8.4 69 2.8 WSW 74 93 40 50 1010.0 - -
21/08:10am 14.0 0.3 8.4 69 2.8 WSW 70 87 38 47 1010.0 - -

Other formats

Comma delimited format used in spreadsheet applications
http://www.bom.gov.au/fwo/IDV60801/IDV60801.55039.axf

JavaScript Object Notation format (JSON) in row-major order
http://www.bom.gov.au/fwo/IDV60801/IDV60801.55039.json

Data quality

Most of these data are generated automatically and are frequently updated. Quality checks on data are not normally performed. It is possible for incorrect values to appear. Refer to information at About Latest Weather Observations and please check the disclaimer before using these data.